createdAt,value
2018-05-25T00:02:25.639Z,4.97
2018-05-25T00:04:52.426Z,4.60
2018-05-25T00:07:19.186Z,5.03
2018-05-25T00:09:45.956Z,5.10
2018-05-25T00:12:12.745Z,6.20
2018-05-25T00:14:39.545Z,4.90
2018-05-25T00:17:06.308Z,4.80
2018-05-25T00:19:33.116Z,5.47
2018-05-25T00:21:59.878Z,4.67
2018-05-25T00:24:26.677Z,5.47
2018-05-25T00:26:53.461Z,5.33
2018-05-25T00:29:20.231Z,5.20
2018-05-25T00:31:47.005Z,4.27
2018-05-25T00:34:13.792Z,4.90
2018-05-25T00:36:40.557Z,4.87
2018-05-25T00:39:07.334Z,5.10
2018-05-25T00:41:34.137Z,5.63
2018-05-25T00:44:00.889Z,4.20
2018-05-25T00:46:27.668Z,5.47
2018-05-25T00:48:54.477Z,4.33
2018-05-25T00:51:21.225Z,6.00
2018-05-25T00:53:47.992Z,5.20
2018-05-25T00:56:14.796Z,5.60
2018-05-25T00:58:41.555Z,4.73
2018-05-25T01:01:08.325Z,5.60
2018-05-25T01:03:35.162Z,5.40
2018-05-25T01:06:01.967Z,5.60
2018-05-25T01:08:28.725Z,5.00
2018-05-25T01:10:55.524Z,5.30
2018-05-25T01:13:22.281Z,6.20
2018-05-25T01:15:49.055Z,5.57
2018-05-25T01:18:15.835Z,5.43
2018-05-25T01:20:42.592Z,6.43
2018-05-25T01:23:09.356Z,5.90
2018-05-25T01:25:36.139Z,5.43
2018-05-25T01:28:02.912Z,5.80
2018-05-25T01:30:29.652Z,5.70
2018-05-25T01:32:56.444Z,5.50
2018-05-25T01:35:23.233Z,5.30
2018-05-25T01:37:49.969Z,5.67
2018-05-25T01:40:16.748Z,6.63
2018-05-25T01:42:43.517Z,6.03
2018-05-25T01:45:10.273Z,6.43
2018-05-25T01:47:37.059Z,5.77
2018-05-25T01:50:03.832Z,5.90
2018-05-25T01:52:30.612Z,6.30
2018-05-25T01:54:57.397Z,6.70
2018-05-25T01:57:24.177Z,7.10
2018-05-25T01:59:50.944Z,5.73
2018-05-25T02:02:17.748Z,6.03
2018-05-25T02:04:44.539Z,5.67
2018-05-25T02:07:11.294Z,5.90
2018-05-25T02:09:38.098Z,7.30
2018-05-25T02:12:04.878Z,7.00
2018-05-25T02:14:31.655Z,6.43
2018-05-25T02:16:58.454Z,6.70
2018-05-25T02:19:25.253Z,5.80
2018-05-25T02:21:52.009Z,6.23
2018-05-25T02:24:18.784Z,6.87
2018-05-25T02:26:45.603Z,6.17
2018-05-25T02:29:12.408Z,6.17
2018-05-25T02:31:39.157Z,6.70
2018-05-25T02:34:05.955Z,6.03
2018-05-25T02:36:32.705Z,6.80
2018-05-25T02:38:59.509Z,7.00
2018-05-25T02:41:26.275Z,6.97
2018-05-25T02:43:53.056Z,7.40
2018-05-25T02:46:19.812Z,7.70
2018-05-25T02:48:46.596Z,6.63
2018-05-25T02:51:13.338Z,6.93
2018-05-25T02:53:40.135Z,6.67
2018-05-25T02:56:06.900Z,7.40
2018-05-25T02:58:33.707Z,7.13
2018-05-25T03:01:00.519Z,7.53
2018-05-25T03:03:27.266Z,7.10
2018-05-25T03:05:54.051Z,8.50
2018-05-25T03:08:20.802Z,8.37
2018-05-25T03:10:47.613Z,8.57
2018-05-25T03:13:14.412Z,8.03
2018-05-25T03:15:41.215Z,7.83
2018-05-25T03:18:07.978Z,8.00
2018-05-25T03:20:34.829Z,9.30
2018-05-25T03:23:01.608Z,11.80
2018-05-25T03:25:28.393Z,11.47
2018-05-25T03:27:55.170Z,11.33
2018-05-25T03:30:21.970Z,10.93
2018-05-25T03:32:48.746Z,10.10
2018-05-25T03:35:15.554Z,12.23
2018-05-25T03:37:42.336Z,15.13
2018-05-25T03:40:09.112Z,11.87
2018-05-25T03:42:35.937Z,14.80
2018-05-25T03:45:02.705Z,12.13
2018-05-25T03:47:29.516Z,11.50
2018-05-25T03:49:56.283Z,10.00
2018-05-25T03:52:23.091Z,8.90
2018-05-25T03:54:49.859Z,7.80
2018-05-25T03:57:16.640Z,9.00
2018-05-25T03:59:49.282Z,8.40
2018-05-25T04:02:16.120Z,8.20
2018-05-25T04:04:42.884Z,9.63
2018-05-25T04:07:09.711Z,8.03
2018-05-25T04:09:36.484Z,7.90
2018-05-25T04:12:03.280Z,7.37
2018-05-25T04:14:30.028Z,7.73
2018-05-25T04:16:56.819Z,6.23
2018-05-25T04:19:23.619Z,6.80
2018-05-25T04:21:50.374Z,7.40
2018-05-25T04:24:17.141Z,6.60
2018-05-25T04:26:43.881Z,7.40
2018-05-25T04:29:10.688Z,7.07
2018-05-25T04:31:37.440Z,7.03
2018-05-25T04:34:04.262Z,7.20
2018-05-25T04:36:31.037Z,6.37
2018-05-25T04:38:57.818Z,6.60
2018-05-25T04:41:24.612Z,5.90
2018-05-25T04:43:51.408Z,5.90
2018-05-25T04:46:18.186Z,6.60
2018-05-25T04:48:44.992Z,6.30
2018-05-25T04:51:11.737Z,6.00
2018-05-25T04:53:38.566Z,6.77
2018-05-25T04:56:05.316Z,6.30
2018-05-25T04:58:32.090Z,6.53
2018-05-25T05:00:58.861Z,6.17
2018-05-25T05:03:26.360Z,6.23
2018-05-25T05:05:53.159Z,6.60
2018-05-25T05:08:19.955Z,6.60
2018-05-25T05:10:46.727Z,6.20
2018-05-25T05:13:13.499Z,6.57
2018-05-25T05:15:40.358Z,5.37
2018-05-25T05:18:07.137Z,5.80
2018-05-25T05:20:33.947Z,6.67
2018-05-25T05:23:00.756Z,5.90
2018-05-25T05:25:27.603Z,6.70
2018-05-25T05:27:54.369Z,5.97
2018-05-25T05:30:21.153Z,5.83
2018-05-25T05:32:47.889Z,6.67
2018-05-25T05:35:14.685Z,6.17
2018-05-25T05:37:41.451Z,6.00
2018-05-25T05:40:08.232Z,5.20
2018-05-25T05:42:34.987Z,6.23
2018-05-25T05:45:01.769Z,5.70
2018-05-25T05:47:28.543Z,5.90
2018-05-25T05:49:55.317Z,6.13
2018-05-25T05:52:22.080Z,5.60
2018-05-25T05:54:48.865Z,6.23
2018-05-25T05:57:15.614Z,5.77
2018-05-25T05:59:42.383Z,6.43
2018-05-25T06:02:09.891Z,6.13
2018-05-25T06:04:36.667Z,5.23
2018-05-25T06:07:03.467Z,5.60
2018-05-25T06:09:30.531Z,5.40
2018-05-25T06:11:57.318Z,6.07
2018-05-25T06:14:24.098Z,5.30
2018-05-25T06:16:50.876Z,6.23
2018-05-25T06:19:17.910Z,6.60
2018-05-25T06:21:44.685Z,8.27
2018-05-25T06:24:11.456Z,5.70
2018-05-25T06:26:38.229Z,5.30
2018-05-25T06:29:05.008Z,5.20
2018-05-25T06:31:31.811Z,4.70
2018-05-25T06:33:59.286Z,6.20
2018-05-25T06:36:26.188Z,4.97
2018-05-25T06:38:52.941Z,5.50
2018-05-25T06:41:19.719Z,5.30
2018-05-25T06:43:46.456Z,5.80
2018-05-25T06:46:13.274Z,10.30
2018-05-25T06:48:40.048Z,10.83
2018-05-25T06:51:06.793Z,9.70
2018-05-25T06:53:33.597Z,7.37
2018-05-25T06:56:00.377Z,5.20
2018-05-25T06:58:27.190Z,4.93
2018-05-25T07:00:53.928Z,4.93
2018-05-25T07:03:20.707Z,5.63
2018-05-25T07:05:47.457Z,4.90
2018-05-25T07:08:14.285Z,4.90
2018-05-25T07:10:41.355Z,4.80
2018-05-25T07:13:08.213Z,4.83
2018-05-25T07:15:34.985Z,4.70
2018-05-25T07:18:01.777Z,4.90
2018-05-25T07:20:28.517Z,4.40
2018-05-25T07:22:55.308Z,5.27
2018-05-25T07:25:22.092Z,4.50
2018-05-25T07:27:49.512Z,5.33
2018-05-25T07:30:16.253Z,5.10
2018-05-25T07:32:43.061Z,4.87
2018-05-25T07:35:10.025Z,4.83
2018-05-25T07:37:36.924Z,4.50
2018-05-25T07:40:03.748Z,5.07
2018-05-25T07:42:30.496Z,4.43
2018-05-25T07:44:57.267Z,4.40
2018-05-25T07:47:24.056Z,4.77
2018-05-25T07:49:50.833Z,4.20
2018-05-25T07:52:17.592Z,4.83
2018-05-25T07:54:44.378Z,4.10
2018-05-25T07:57:11.141Z,3.77
2018-05-25T07:59:37.933Z,4.63
2018-05-25T08:02:04.707Z,3.67
2018-05-25T08:04:32.248Z,4.10
2018-05-25T08:06:59.080Z,5.63
2018-05-25T08:09:25.879Z,3.70
2018-05-25T08:11:52.724Z,3.83
2018-05-25T08:14:20.257Z,3.60
2018-05-25T08:16:47.023Z,4.33
2018-05-25T08:19:13.833Z,4.30
2018-05-25T08:21:40.664Z,3.50
2018-05-25T08:24:07.377Z,4.30
2018-05-25T08:26:34.272Z,4.37
2018-05-25T08:29:01.107Z,3.97
2018-05-25T08:31:27.912Z,3.60
2018-05-25T08:33:54.659Z,3.33
2018-05-25T08:36:22.173Z,3.90
2018-05-25T08:38:48.941Z,3.40
2018-05-25T08:41:15.752Z,3.67
2018-05-25T08:43:42.838Z,4.23
2018-05-25T08:46:09.649Z,3.33
2018-05-25T08:48:36.411Z,3.57
2018-05-25T08:51:03.211Z,3.70
2018-05-25T08:53:30.323Z,3.63
2018-05-25T08:55:57.127Z,4.17
2018-05-25T08:58:23.895Z,3.67
2018-05-25T09:00:50.672Z,3.60
2018-05-25T09:03:21.432Z,4.43
2018-05-25T09:05:48.101Z,3.60
2018-05-25T09:08:15.358Z,3.70
2018-05-25T09:10:42.168Z,3.80
2018-05-25T09:13:08.951Z,3.50
2018-05-25T09:15:35.694Z,3.53
2018-05-25T09:18:02.495Z,3.20
2018-05-25T09:20:29.316Z,3.73
2018-05-25T09:22:56.107Z,3.70
2018-05-25T09:25:22.860Z,3.23
2018-05-25T09:27:49.648Z,3.43
2018-05-25T09:30:16.417Z,3.33
2018-05-25T09:32:43.212Z,3.60
2018-05-25T09:35:09.972Z,3.47
2018-05-25T09:37:36.770Z,2.87
2018-05-25T09:40:03.541Z,3.13
2018-05-25T09:42:30.341Z,3.90
2018-05-25T09:44:57.099Z,3.03
2018-05-25T09:47:23.884Z,2.93
2018-05-25T09:49:50.996Z,2.60
2018-05-25T09:52:17.781Z,3.10
2018-05-25T09:54:44.558Z,2.60
2018-05-25T09:57:11.357Z,2.53
2018-05-25T09:59:38.119Z,2.40
2018-05-25T10:02:04.880Z,2.53
2018-05-25T10:04:31.671Z,2.40
2018-05-25T10:06:58.452Z,2.97
2018-05-25T10:09:25.262Z,3.00
2018-05-25T10:11:52.030Z,2.43
2018-05-25T10:14:19.515Z,2.73
2018-05-25T10:16:46.257Z,2.83
2018-05-25T10:19:13.058Z,2.03
2018-05-25T10:21:39.833Z,3.23
2018-05-25T10:24:06.628Z,2.33
2018-05-25T10:26:33.399Z,2.30
2018-05-25T10:29:00.181Z,2.33
2018-05-25T10:31:26.941Z,2.67
2018-05-25T10:33:53.757Z,2.93
2018-05-25T10:36:20.500Z,2.80
2018-05-25T10:38:47.288Z,2.70
2018-05-25T10:41:14.239Z,2.60
2018-05-25T10:43:41.053Z,3.37
2018-05-25T10:46:07.856Z,2.77
2018-05-25T10:48:34.718Z,2.90
2018-05-25T10:51:01.489Z,2.47
2018-05-25T10:53:28.229Z,2.33
2018-05-25T10:55:55.063Z,2.10
2018-05-25T10:58:21.844Z,2.33
2018-05-25T11:00:49.268Z,2.20
2018-05-25T11:03:16.040Z,2.43
2018-05-25T11:05:42.817Z,2.30
2018-05-25T11:08:09.596Z,1.90
2018-05-25T11:10:36.380Z,2.80
2018-05-25T11:13:03.162Z,2.03
2018-05-25T11:15:29.975Z,2.33
2018-05-25T11:17:57.615Z,1.50
2018-05-25T11:20:24.404Z,1.97
2018-05-25T11:22:51.176Z,1.80
2018-05-25T11:25:17.956Z,1.70
2018-05-25T11:27:45.212Z,1.50
2018-05-25T11:30:12.011Z,1.90
2018-05-25T11:32:38.749Z,1.80
2018-05-25T11:35:05.541Z,1.63
2018-05-25T11:37:32.304Z,1.63
2018-05-25T11:39:59.037Z,1.37
2018-05-25T11:42:25.828Z,1.53
2018-05-25T11:44:52.610Z,2.23
2018-05-25T11:47:19.401Z,1.57
2018-05-25T11:49:46.157Z,1.40
2018-05-25T11:52:12.957Z,1.57
2018-05-25T11:54:39.708Z,2.07
2018-05-25T11:57:06.519Z,1.60
2018-05-25T11:59:33.275Z,1.70
2018-05-25T12:02:00.062Z,2.20
2018-05-25T12:04:26.816Z,1.50
2018-05-25T12:06:53.587Z,1.67
2018-05-25T12:09:20.357Z,1.60
2018-05-25T12:11:47.482Z,1.57
2018-05-25T12:14:14.256Z,1.60
2018-05-25T12:16:41.040Z,1.60
2018-05-25T12:19:07.783Z,1.53
2018-05-25T12:21:35.289Z,1.80
2018-05-25T12:24:02.064Z,1.50
2018-05-25T12:26:28.827Z,1.70
2018-05-25T12:28:55.617Z,1.40
2018-05-25T12:31:22.381Z,1.67
2018-05-25T12:33:49.156Z,1.47
2018-05-25T12:36:15.921Z,1.90
2018-05-25T12:38:42.693Z,1.63
2018-05-25T12:41:09.437Z,1.67
2018-05-25T12:43:36.233Z,1.50
2018-05-25T12:46:03.006Z,1.40
2018-05-25T12:48:29.806Z,1.57
2018-05-25T12:50:56.579Z,1.47
2018-05-25T12:53:23.372Z,1.43
2018-05-25T12:55:50.165Z,1.50
2018-05-25T12:58:16.950Z,2.00
2018-05-25T13:00:43.706Z,1.50
2018-05-25T13:03:10.491Z,1.90
2018-05-25T13:05:37.280Z,1.80
2018-05-25T13:08:04.085Z,1.73
2018-05-25T13:10:31.186Z,1.40
2018-05-25T13:12:57.934Z,1.80
2018-05-25T13:15:24.724Z,1.40
2018-05-25T13:17:51.502Z,1.53
2018-05-25T13:20:18.281Z,1.97
2018-05-25T13:22:45.052Z,1.60
2018-05-25T13:25:11.867Z,1.33
2018-05-25T13:27:38.617Z,1.60
2018-05-25T13:30:05.461Z,1.40
2018-05-25T13:32:33.209Z,1.50
2018-05-25T13:35:00.003Z,1.20
2018-05-25T13:37:26.773Z,0.80
2018-05-25T13:39:53.552Z,1.00
2018-05-25T13:42:20.313Z,1.13
2018-05-25T13:44:47.252Z,1.20
2018-05-25T13:47:14.012Z,0.97
2018-05-25T13:49:40.872Z,1.23
2018-05-25T13:52:07.632Z,1.10
2018-05-25T13:54:34.794Z,1.10
2018-05-25T13:57:02.349Z,0.90
2018-05-25T13:59:29.149Z,0.90
2018-05-25T14:01:56.154Z,0.90
2018-05-25T14:04:22.890Z,0.77
2018-05-25T14:06:49.695Z,0.90
2018-05-25T14:09:16.473Z,0.93
2018-05-25T14:11:47.789Z,0.80
2018-05-25T14:14:14.615Z,0.80
2018-05-25T14:16:42.111Z,1.30
2018-05-25T14:19:08.872Z,0.90
2018-05-25T14:21:35.672Z,0.97
2018-05-25T14:24:02.432Z,0.87
2018-05-25T14:26:29.239Z,0.70
2018-05-25T14:28:56.042Z,1.40
2018-05-25T14:31:22.838Z,0.60
2018-05-25T14:33:49.581Z,0.80
2018-05-25T14:36:16.365Z,0.80
2018-05-25T14:38:43.673Z,1.23
2018-05-25T14:41:10.475Z,0.77
2018-05-25T14:43:37.251Z,0.80
2018-05-25T14:46:04.071Z,0.90
2018-05-25T14:48:31.527Z,1.00
2018-05-25T14:50:58.312Z,1.00
2018-05-25T14:53:25.075Z,0.97
2018-05-25T14:55:51.860Z,0.80
2018-05-25T14:58:19.568Z,1.10
2018-05-25T15:00:46.347Z,1.20
2018-05-25T15:03:13.134Z,1.00
2018-05-25T15:05:39.878Z,1.40
2018-05-25T15:08:06.668Z,1.00
2018-05-25T15:10:33.434Z,1.00
2018-05-25T15:13:00.196Z,1.50
2018-05-25T15:15:26.945Z,2.00
2018-05-25T15:17:53.724Z,1.07
2018-05-25T15:20:20.484Z,1.40
2018-05-25T15:22:47.273Z,1.70
2018-05-25T15:25:14.400Z,2.00
2018-05-25T15:27:41.173Z,1.53
2018-05-25T15:30:07.932Z,1.60
2018-05-25T15:32:34.808Z,1.73
2018-05-25T15:35:01.508Z,2.10
2018-05-25T15:37:28.303Z,2.00
2018-05-25T15:39:55.054Z,2.80
2018-05-25T15:42:21.816Z,1.73
2018-05-25T15:44:48.608Z,2.37
2018-05-25T15:47:15.383Z,2.87
2018-05-25T15:49:42.188Z,2.00
2018-05-25T15:52:08.946Z,1.90
2018-05-25T15:54:35.745Z,1.80
2018-05-25T15:57:02.489Z,1.50
2018-05-25T15:59:29.288Z,1.73
2018-05-25T16:01:56.066Z,1.40
2018-05-25T16:04:22.878Z,1.97
2018-05-25T16:06:50.288Z,1.60
2018-05-25T16:09:17.068Z,1.67
2018-05-25T16:11:43.808Z,1.27
2018-05-25T16:14:10.595Z,1.97
2018-05-25T16:16:37.354Z,1.53
2018-05-25T16:19:04.168Z,2.77
2018-05-25T16:21:30.932Z,1.67
2018-05-25T16:23:57.733Z,1.40
2018-05-25T16:26:24.506Z,2.00
2018-05-25T16:28:51.316Z,1.70
2018-05-25T16:31:18.114Z,1.50
2018-05-25T16:33:44.912Z,1.47
2018-05-25T16:36:11.695Z,1.70
2018-05-25T16:38:38.485Z,1.27
2018-05-25T16:41:05.282Z,1.30
2018-05-25T16:43:32.097Z,2.57
2018-05-25T16:45:58.880Z,1.43
2018-05-25T16:48:25.664Z,1.50
2018-05-25T16:50:52.467Z,1.50
2018-05-25T16:53:19.223Z,1.40
2018-05-25T16:55:45.981Z,1.43
2018-05-25T16:58:12.737Z,1.30
2018-05-25T17:00:39.539Z,1.37
2018-05-25T17:03:06.300Z,1.40
2018-05-25T17:05:33.086Z,1.60
2018-05-25T17:07:59.857Z,1.40
2018-05-25T17:10:26.620Z,1.33
2018-05-25T17:12:53.416Z,1.40
2018-05-25T17:15:20.196Z,1.50
2018-05-25T17:17:46.975Z,1.10
2018-05-25T17:20:13.726Z,1.80
2018-05-25T17:22:40.519Z,1.60
2018-05-25T17:25:07.288Z,1.80
2018-05-25T17:27:34.072Z,1.90
2018-05-25T17:30:00.862Z,1.93
2018-05-25T17:32:27.712Z,2.00
2018-05-25T17:34:54.469Z,2.40
2018-05-25T17:37:21.321Z,2.13
2018-05-25T17:39:48.067Z,2.40
2018-05-25T17:42:15.501Z,2.50
2018-05-25T17:44:42.277Z,2.50
2018-05-25T17:47:09.089Z,3.10
2018-05-25T17:49:35.883Z,2.87
2018-05-25T17:52:02.686Z,2.83
2018-05-25T17:54:29.425Z,2.90
2018-05-25T17:56:56.324Z,2.67
2018-05-25T17:59:23.065Z,2.17
2018-05-25T18:01:49.909Z,2.67
2018-05-25T18:04:16.677Z,2.60
2018-05-25T18:06:43.456Z,2.60
2018-05-25T18:09:10.269Z,3.90
2018-05-25T18:11:37.052Z,2.73
2018-05-25T18:14:03.855Z,2.53
2018-05-25T18:16:30.609Z,3.33
2018-05-25T18:18:57.424Z,3.50
2018-05-25T18:21:24.174Z,2.93
2018-05-25T18:23:51.243Z,3.03
2018-05-25T18:26:17.984Z,2.90
2018-05-25T18:28:44.778Z,2.50
2018-05-25T18:31:11.525Z,3.73
2018-05-25T18:33:38.298Z,3.13
2018-05-25T18:36:06.048Z,3.37
2018-05-25T18:38:32.849Z,3.90
2018-05-25T18:40:59.602Z,3.47
2018-05-25T18:43:26.378Z,3.33
2018-05-25T18:45:53.136Z,3.40
2018-05-25T18:48:19.941Z,3.33
2018-05-25T18:50:46.990Z,3.47
2018-05-25T18:53:13.769Z,3.50
2018-05-25T18:55:40.579Z,3.23
2018-05-25T18:58:07.309Z,3.00
2018-05-25T19:00:34.160Z,3.47
2018-05-25T19:03:01.429Z,4.33
2018-05-25T19:05:28.234Z,4.43
2018-05-25T19:07:55.007Z,3.87
2018-05-25T19:10:21.789Z,4.03
2018-05-25T19:12:48.560Z,4.77
2018-05-25T19:15:15.351Z,3.57
2018-05-25T19:17:42.113Z,3.87
2018-05-25T19:20:09.723Z,4.30
2018-05-25T19:22:36.466Z,4.63
2018-05-25T19:25:03.266Z,4.80
2018-05-25T19:27:30.056Z,3.87
2018-05-25T19:29:56.817Z,4.47
2018-05-25T19:32:23.648Z,5.00
2018-05-25T19:34:50.415Z,4.30
2018-05-25T19:37:17.200Z,4.30
2018-05-25T19:39:43.977Z,4.93
2018-05-25T19:42:10.754Z,4.40
2018-05-25T19:44:37.547Z,5.30
2018-05-25T19:47:04.325Z,4.83
2018-05-25T19:49:31.057Z,5.17
2018-05-25T19:51:58.438Z,4.53
2018-05-25T19:54:25.202Z,4.80
2018-05-25T19:56:52.082Z,4.30
2018-05-25T19:59:18.866Z,4.90
2018-05-25T20:01:45.849Z,5.70
2018-05-25T20:04:12.895Z,5.00
2018-05-25T20:06:39.682Z,5.87
2018-05-25T20:09:07.053Z,4.80
2018-05-25T20:11:34.401Z,5.20
2018-05-25T20:14:01.172Z,4.77
2018-05-25T20:16:27.952Z,5.40
2018-05-25T20:18:54.687Z,4.50
2018-05-25T20:21:21.444Z,5.10
2018-05-25T20:23:48.188Z,5.30
2018-05-25T20:26:15.021Z,4.77
2018-05-25T20:28:41.796Z,4.80
2018-05-25T20:31:08.583Z,5.27
2018-05-25T20:33:35.380Z,5.10
2018-05-25T20:36:02.148Z,5.90
2018-05-25T20:38:28.941Z,5.70
2018-05-25T20:40:55.724Z,5.33
2018-05-25T20:43:22.514Z,4.90
2018-05-25T20:45:49.288Z,5.20
2018-05-25T20:48:16.070Z,5.97
2018-05-25T20:50:42.852Z,6.80
2018-05-25T20:53:09.617Z,5.60
2018-05-25T20:55:36.420Z,6.03
2018-05-25T20:58:03.228Z,6.07
2018-05-25T21:00:29.987Z,5.53
2018-05-25T21:02:56.785Z,5.23
2018-05-25T21:05:23.552Z,6.57
2018-05-25T21:07:50.340Z,5.70
2018-05-25T21:10:17.104Z,4.33
2018-05-25T21:12:44.683Z,5.43
2018-05-25T21:15:12.253Z,5.50
2018-05-25T21:17:39.057Z,5.00
2018-05-25T21:20:05.793Z,5.17
2018-05-25T21:22:32.569Z,5.30
2018-05-25T21:24:59.372Z,5.47
2018-05-25T21:27:26.130Z,4.67
2018-05-25T21:29:52.909Z,5.10
2018-05-25T21:32:20.293Z,4.93
2018-05-25T21:34:47.100Z,5.30
2018-05-25T21:37:13.848Z,5.13
2018-05-25T21:39:40.687Z,4.83
2018-05-25T21:42:07.456Z,5.50
2018-05-25T21:44:34.217Z,5.43
2018-05-25T21:47:00.967Z,5.17
2018-05-25T21:49:27.772Z,5.17
2018-05-25T21:51:54.536Z,5.00
2018-05-25T21:54:21.372Z,6.50
2018-05-25T21:56:48.112Z,6.47
2018-05-25T21:59:14.889Z,5.60
2018-05-25T22:01:41.663Z,7.17
2018-05-25T22:04:08.447Z,5.73
2018-05-25T22:06:35.197Z,6.07
2018-05-25T22:09:01.949Z,5.53
2018-05-25T22:11:28.756Z,4.63
2018-05-25T22:13:55.540Z,4.70
2018-05-25T22:16:22.362Z,4.10
2018-05-25T22:18:49.075Z,4.53
2018-05-25T22:21:15.866Z,4.50
2018-05-25T22:23:42.623Z,5.50
2018-05-25T22:26:09.398Z,4.03
2018-05-25T22:28:36.162Z,3.47
2018-05-25T22:31:02.961Z,5.10
2018-05-25T22:33:29.706Z,4.73
2018-05-25T22:35:56.469Z,4.80
2018-05-25T22:38:23.205Z,4.70
2018-05-25T22:40:50.003Z,5.07
2018-05-25T22:43:22.472Z,4.70
2018-05-25T22:45:54.991Z,5.40
2018-05-25T22:48:27.517Z,5.00
2018-05-25T22:51:00.131Z,5.67
2018-05-25T22:53:32.372Z,4.43
2018-05-25T22:55:59.137Z,5.33
2018-05-25T22:58:25.927Z,4.70
2018-05-25T23:00:52.690Z,5.27
2018-05-25T23:03:19.469Z,5.17
2018-05-25T23:05:46.228Z,5.43
2018-05-25T23:08:13.027Z,6.20
2018-05-25T23:10:39.821Z,6.67
2018-05-25T23:13:06.600Z,6.20
2018-05-25T23:15:33.402Z,5.93
2018-05-25T23:18:00.181Z,5.90
2018-05-25T23:20:26.931Z,5.97
2018-05-25T23:22:53.736Z,6.00
2018-05-25T23:25:20.609Z,7.47
2018-05-25T23:27:47.378Z,8.13
2018-05-25T23:30:14.149Z,7.17
2018-05-25T23:32:40.889Z,8.87
2018-05-25T23:35:07.669Z,8.20
2018-05-25T23:37:34.440Z,10.57
2018-05-25T23:40:01.213Z,9.30
2018-05-25T23:42:28.000Z,9.47
2018-05-25T23:44:54.772Z,10.77
2018-05-25T23:47:21.533Z,9.60
2018-05-25T23:49:48.308Z,9.20
2018-05-25T23:52:15.084Z,11.70
2018-05-25T23:54:41.873Z,10.23
2018-05-25T23:57:08.653Z,12.10
2018-05-25T23:59:35.425Z,10.37
